sensor_id;sensor_type;location;lat;lon;timestamp;P1;durP1;ratioP1;P2;durP2;ratioP2
53285;SDS011;39171;45.550;12.074;2022-08-04T00:02:18;1.00;;;0.63;;
53285;SDS011;39171;45.550;12.074;2022-08-04T00:08:28;0.70;;;0.52;;
53285;SDS011;39171;45.550;12.074;2022-08-04T00:14:39;0.90;;;0.50;;
53285;SDS011;39171;45.550;12.074;2022-08-04T00:20:46;0.77;;;0.60;;
53285;SDS011;39171;45.550;12.074;2022-08-04T00:26:50;0.80;;;0.70;;
53285;SDS011;39171;45.550;12.074;2022-08-04T00:32:55;0.93;;;0.45;;
53285;SDS011;39171;45.550;12.074;2022-08-04T00:38:58;1.20;;;0.70;;
53285;SDS011;39171;45.550;12.074;2022-08-04T01:03:58;1.00;;;0.77;;
53285;SDS011;39171;45.550;12.074;2022-08-04T01:10:07;1.10;;;0.80;;
53285;SDS011;39171;45.550;12.074;2022-08-04T01:16:14;0.80;;;0.63;;
53285;SDS011;39171;45.550;12.074;2022-08-04T01:41:09;1.13;;;0.90;;
53285;SDS011;39171;45.550;12.074;2022-08-04T01:47:16;1.15;;;0.80;;
53285;SDS011;39171;45.550;12.074;2022-08-04T01:53:20;1.52;;;1.00;;
53285;SDS011;39171;45.550;12.074;2022-08-04T01:59:30;1.10;;;0.90;;
53285;SDS011;39171;45.550;12.074;2022-08-04T02:05:34;1.60;;;1.10;;
53285;SDS011;39171;45.550;12.074;2022-08-04T02:11:35;2.25;;;1.08;;
53285;SDS011;39171;45.550;12.074;2022-08-04T02:24:02;2.70;;;1.63;;
53285;SDS011;39171;45.550;12.074;2022-08-04T02:30:07;1.58;;;1.30;;
53285;SDS011;39171;45.550;12.074;2022-08-04T02:36:12;1.98;;;1.33;;
53285;SDS011;39171;45.550;12.074;2022-08-04T02:42:22;1.60;;;1.27;;
53285;SDS011;39171;45.550;12.074;2022-08-04T02:48:23;2.38;;;1.30;;
53285;SDS011;39171;45.550;12.074;2022-08-04T02:54:31;1.90;;;1.50;;
53285;SDS011;39171;45.550;12.074;2022-08-04T03:00:36;2.08;;;1.20;;
53285;SDS011;39171;45.550;12.074;2022-08-04T03:06:47;1.67;;;1.40;;
53285;SDS011;39171;45.550;12.074;2022-08-04T03:26:20;1.70;;;1.20;;
53285;SDS011;39171;45.550;12.074;2022-08-04T03:39:36;1.70;;;1.20;;
53285;SDS011;39171;45.550;12.074;2022-08-04T03:45:52;1.60;;;1.30;;
53285;SDS011;39171;45.550;12.074;2022-08-04T03:59:08;1.80;;;1.55;;
53285;SDS011;39171;45.550;12.074;2022-08-04T04:12:09;2.00;;;1.48;;
53285;SDS011;39171;45.550;12.074;2022-08-04T04:18:37;1.88;;;1.42;;
53285;SDS011;39171;45.550;12.074;2022-08-04T04:31:02;2.13;;;1.35;;
53285;SDS011;39171;45.550;12.074;2022-08-04T04:57:06;2.15;;;1.70;;
53285;SDS011;39171;45.550;12.074;2022-08-04T05:16:19;1.55;;;1.40;;
53285;SDS011;39171;45.550;12.074;2022-08-04T05:28:53;1.80;;;1.38;;
53285;SDS011;39171;45.550;12.074;2022-08-04T05:34:58;2.00;;;1.55;;
53285;SDS011;39171;45.550;12.074;2022-08-04T05:41:04;2.20;;;1.52;;
53285;SDS011;39171;45.550;12.074;2022-08-04T05:47:08;1.45;;;1.25;;
53285;SDS011;39171;45.550;12.074;2022-08-04T05:53:12;1.80;;;1.38;;
53285;SDS011;39171;45.550;12.074;2022-08-04T05:59:17;1.48;;;1.27;;
53285;SDS011;39171;45.550;12.074;2022-08-04T06:05:19;1.65;;;1.20;;
53285;SDS011;39171;45.550;12.074;2022-08-04T06:11:22;1.65;;;1.20;;
53285;SDS011;39171;45.550;12.074;2022-08-04T06:17:31;1.40;;;1.20;;
53285;SDS011;39171;45.550;12.074;2022-08-04T06:23:35;1.30;;;0.97;;
53285;SDS011;39171;45.550;12.074;2022-08-04T06:29:39;1.08;;;0.80;;
53285;SDS011;39171;45.550;12.074;2022-08-04T06:35:42;1.23;;;1.02;;
53285;SDS011;39171;45.550;12.074;2022-08-04T06:41:45;1.25;;;0.80;;
53285;SDS011;39171;45.550;12.074;2022-08-04T06:47:49;0.98;;;0.80;;
53285;SDS011;39171;45.550;12.074;2022-08-04T06:53:51;1.35;;;0.90;;
53285;SDS011;39171;45.550;12.074;2022-08-04T06:59:56;0.90;;;0.70;;
53285;SDS011;39171;45.550;12.074;2022-08-04T07:06:00;0.98;;;0.73;;
53285;SDS011;39171;45.550;12.074;2022-08-04T07:12:02;0.90;;;0.70;;
53285;SDS011;39171;45.550;12.074;2022-08-04T07:18:06;0.98;;;0.73;;
53285;SDS011;39171;45.550;12.074;2022-08-04T07:24:07;1.50;;;0.80;;
53285;SDS011;39171;45.550;12.074;2022-08-04T07:30:09;0.88;;;0.60;;
53285;SDS011;39171;45.550;12.074;2022-08-04T07:36:11;0.75;;;0.60;;
53285;SDS011;39171;45.550;12.074;2022-08-04T07:42:13;0.50;;;0.43;;
53285;SDS011;39171;45.550;12.074;2022-08-04T07:48:17;0.75;;;0.57;;
53285;SDS011;39171;45.550;12.074;2022-08-04T07:54:24;0.88;;;0.50;;
53285;SDS011;39171;45.550;12.074;2022-08-04T08:00:26;0.60;;;0.60;;
53285;SDS011;39171;45.550;12.074;2022-08-04T08:06:28;0.73;;;0.50;;
53285;SDS011;39171;45.550;12.074;2022-08-04T08:12:30;0.63;;;0.50;;
53285;SDS011;39171;45.550;12.074;2022-08-04T08:18:33;0.90;;;0.70;;
53285;SDS011;39171;45.550;12.074;2022-08-04T08:24:37;0.73;;;0.50;;
53285;SDS011;39171;45.550;12.074;2022-08-04T08:30:39;0.90;;;0.60;;
53285;SDS011;39171;45.550;12.074;2022-08-04T08:36:54;0.70;;;0.50;;
53285;SDS011;39171;45.550;12.074;2022-08-04T08:50:11;1.02;;;0.82;;
53285;SDS011;39171;45.550;12.074;2022-08-04T08:56:27;0.70;;;0.45;;
53285;SDS011;39171;45.550;12.074;2022-08-04T09:02:43;0.60;;;0.50;;
53285;SDS011;39171;45.550;12.074;2022-08-04T09:15:32;0.88;;;0.70;;
53285;SDS011;39171;45.550;12.074;2022-08-04T09:21:44;0.75;;;0.63;;
53285;SDS011;39171;45.550;12.074;2022-08-04T09:27:53;1.20;;;0.63;;
53285;SDS011;39171;45.550;12.074;2022-08-04T09:34:02;1.08;;;0.63;;
53285;SDS011;39171;45.550;12.074;2022-08-04T09:40:06;1.63;;;0.90;;
53285;SDS011;39171;45.550;12.074;2022-08-04T09:46:21;1.10;;;0.80;;
53285;SDS011;39171;45.550;12.074;2022-08-04T09:52:40;2.03;;;1.00;;
53285;SDS011;39171;45.550;12.074;2022-08-04T10:18:55;1.10;;;0.80;;
53285;SDS011;39171;45.550;12.074;2022-08-04T10:31:22;1.02;;;0.70;;
53285;SDS011;39171;45.550;12.074;2022-08-04T10:37:31;1.00;;;0.70;;
53285;SDS011;39171;45.550;12.074;2022-08-04T10:43:45;0.70;;;0.55;;
53285;SDS011;39171;45.550;12.074;2022-08-04T10:49:58;0.70;;;0.60;;
53285;SDS011;39171;45.550;12.074;2022-08-04T10:56:03;0.90;;;0.73;;
53285;SDS011;39171;45.550;12.074;2022-08-04T11:08:34;2.17;;;1.40;;
53285;SDS011;39171;45.550;12.074;2022-08-04T11:14:41;1.95;;;1.35;;
53285;SDS011;39171;45.550;12.074;2022-08-04T11:20:51;1.77;;;1.13;;
53285;SDS011;39171;45.550;12.074;2022-08-04T11:26:59;1.65;;;1.30;;
53285;SDS011;39171;45.550;12.074;2022-08-04T11:33:10;1.90;;;1.42;;
53285;SDS011;39171;45.550;12.074;2022-08-04T11:39:47;1.45;;;1.23;;
53285;SDS011;39171;45.550;12.074;2022-08-04T11:46:21;1.67;;;1.30;;
53285;SDS011;39171;45.550;12.074;2022-08-04T11:52:47;1.23;;;1.00;;
53285;SDS011;39171;45.550;12.074;2022-08-04T11:58:49;1.40;;;1.10;;
53285;SDS011;39171;45.550;12.074;2022-08-04T12:04:56;1.80;;;1.45;;
53285;SDS011;39171;45.550;12.074;2022-08-04T12:17:30;2.88;;;2.25;;
53285;SDS011;39171;45.550;12.074;2022-08-04T12:23:41;2.33;;;1.83;;
53285;SDS011;39171;45.550;12.074;2022-08-04T12:29:44;2.10;;;1.85;;
53285;SDS011;39171;45.550;12.074;2022-08-04T12:35:49;2.30;;;1.38;;
53285;SDS011;39171;45.550;12.074;2022-08-04T12:48:59;1.75;;;1.30;;
53285;SDS011;39171;45.550;12.074;2022-08-04T12:55:02;1.80;;;1.40;;
53285;SDS011;39171;45.550;12.074;2022-08-04T13:01:07;2.17;;;1.40;;
53285;SDS011;39171;45.550;12.074;2022-08-04T13:07:12;1.70;;;1.50;;
53285;SDS011;39171;45.550;12.074;2022-08-04T13:13:19;2.78;;;2.13;;
53285;SDS011;39171;45.550;12.074;2022-08-04T13:19:24;3.03;;;1.67;;
53285;SDS011;39171;45.550;12.074;2022-08-04T13:25:27;2.80;;;1.88;;
53285;SDS011;39171;45.550;12.074;2022-08-04T13:31:30;3.75;;;2.00;;
53285;SDS011;39171;45.550;12.074;2022-08-04T13:37:36;2.60;;;1.77;;
53285;SDS011;39171;45.550;12.074;2022-08-04T13:43:41;1.88;;;1.63;;
53285;SDS011;39171;45.550;12.074;2022-08-04T13:56:39;1.80;;;1.27;;
53285;SDS011;39171;45.550;12.074;2022-08-04T14:02:49;1.60;;;1.25;;
53285;SDS011;39171;45.550;12.074;2022-08-04T14:09:21;2.92;;;1.80;;
53285;SDS011;39171;45.550;12.074;2022-08-04T14:15:55;2.22;;;1.70;;
53285;SDS011;39171;45.550;12.074;2022-08-04T14:21:51;2.00;;;1.42;;
53285;SDS011;39171;45.550;12.074;2022-08-04T14:27:53;3.65;;;2.10;;
53285;SDS011;39171;45.550;12.074;2022-08-04T14:33:56;3.28;;;2.30;;
53285;SDS011;39171;45.550;12.074;2022-08-04T14:39:57;3.00;;;1.80;;
53285;SDS011;39171;45.550;12.074;2022-08-04T14:46:02;4.50;;;2.00;;
53285;SDS011;39171;45.550;12.074;2022-08-04T14:52:05;3.42;;;1.60;;
53285;SDS011;39171;45.550;12.074;2022-08-04T14:58:06;3.85;;;1.45;;
53285;SDS011;39171;45.550;12.074;2022-08-04T15:04:16;1.70;;;1.40;;
53285;SDS011;39171;45.550;12.074;2022-08-04T15:10:19;2.97;;;1.50;;
53285;SDS011;39171;45.550;12.074;2022-08-04T15:16:22;2.72;;;1.60;;
53285;SDS011;39171;45.550;12.074;2022-08-04T15:22:24;2.22;;;1.67;;
53285;SDS011;39171;45.550;12.074;2022-08-04T15:28:26;1.63;;;1.27;;
53285;SDS011;39171;45.550;12.074;2022-08-04T15:34:47;2.03;;;1.75;;
53285;SDS011;39171;45.550;12.074;2022-08-04T15:40:58;2.42;;;1.52;;
53285;SDS011;39171;45.550;12.074;2022-08-04T15:47:08;2.20;;;1.60;;
53285;SDS011;39171;45.550;12.074;2022-08-04T15:53:11;1.60;;;1.27;;
53285;SDS011;39171;45.550;12.074;2022-08-04T15:59:12;2.03;;;1.55;;
53285;SDS011;39171;45.550;12.074;2022-08-04T16:11:58;2.72;;;1.88;;
53285;SDS011;39171;45.550;12.074;2022-08-04T16:17:40;2.53;;;1.77;;
53285;SDS011;39171;45.550;12.074;2022-08-04T16:23:55;2.13;;;1.52;;
53285;SDS011;39171;45.550;12.074;2022-08-04T16:30:07;1.80;;;1.33;;
53285;SDS011;39171;45.550;12.074;2022-08-04T16:36:11;1.88;;;1.50;;
53285;SDS011;39171;45.550;12.074;2022-08-04T16:48:30;2.22;;;1.90;;
53285;SDS011;39171;45.550;12.074;2022-08-04T16:54:34;3.42;;;1.40;;
53285;SDS011;39171;45.550;12.074;2022-08-04T17:00:36;2.20;;;1.42;;
53285;SDS011;39171;45.550;12.074;2022-08-04T17:06:39;2.00;;;1.45;;
53285;SDS011;39171;45.550;12.074;2022-08-04T17:12:41;3.65;;;1.50;;
53285;SDS011;39171;45.550;12.074;2022-08-04T17:18:50;2.33;;;1.38;;
53285;SDS011;39171;45.550;12.074;2022-08-04T17:24:53;1.73;;;1.27;;
53285;SDS011;39171;45.550;12.074;2022-08-04T17:31:00;1.60;;;1.27;;
53285;SDS011;39171;45.550;12.074;2022-08-04T17:37:02;1.33;;;1.00;;
53285;SDS011;39171;45.550;12.074;2022-08-04T17:43:04;1.70;;;1.00;;
53285;SDS011;39171;45.550;12.074;2022-08-04T17:55:13;1.77;;;1.02;;
53285;SDS011;39171;45.550;12.074;2022-08-04T18:01:15;1.20;;;1.00;;
53285;SDS011;39171;45.550;12.074;2022-08-04T18:07:21;1.73;;;1.10;;
53285;SDS011;39171;45.550;12.074;2022-08-04T18:13:43;2.45;;;1.67;;
53285;SDS011;39171;45.550;12.074;2022-08-04T18:19:53;2.97;;;1.77;;
53285;SDS011;39171;45.550;12.074;2022-08-04T18:25:55;1.80;;;1.48;;
53285;SDS011;39171;45.550;12.074;2022-08-04T18:31:56;1.70;;;1.20;;
53285;SDS011;39171;45.550;12.074;2022-08-04T18:37:58;1.95;;;1.20;;
53285;SDS011;39171;45.550;12.074;2022-08-04T18:44:02;1.75;;;1.20;;
53285;SDS011;39171;45.550;12.074;2022-08-04T18:50:03;1.50;;;1.00;;
53285;SDS011;39171;45.550;12.074;2022-08-04T18:56:05;2.05;;;1.10;;
53285;SDS011;39171;45.550;12.074;2022-08-04T19:02:07;2.10;;;1.00;;
53285;SDS011;39171;45.550;12.074;2022-08-04T19:08:09;1.88;;;1.15;;
53285;SDS011;39171;45.550;12.074;2022-08-04T19:14:10;2.05;;;1.33;;
53285;SDS011;39171;45.550;12.074;2022-08-04T19:20:12;1.02;;;0.90;;
53285;SDS011;39171;45.550;12.074;2022-08-04T19:26:14;1.40;;;1.00;;
53285;SDS011;39171;45.550;12.074;2022-08-04T19:32:16;1.38;;;0.70;;
53285;SDS011;39171;45.550;12.074;2022-08-04T19:38:17;1.27;;;0.93;;
53285;SDS011;39171;45.550;12.074;2022-08-04T19:44:20;1.15;;;0.77;;
53285;SDS011;39171;45.550;12.074;2022-08-04T19:50:21;1.35;;;0.90;;
53285;SDS011;39171;45.550;12.074;2022-08-04T19:56:23;1.10;;;0.70;;
53285;SDS011;39171;45.550;12.074;2022-08-04T20:02:25;1.38;;;0.85;;
53285;SDS011;39171;45.550;12.074;2022-08-04T20:08:26;1.23;;;0.80;;
53285;SDS011;39171;45.550;12.074;2022-08-04T20:14:28;0.95;;;0.73;;
53285;SDS011;39171;45.550;12.074;2022-08-04T20:20:30;1.10;;;0.70;;
53285;SDS011;39171;45.550;12.074;2022-08-04T20:26:31;1.65;;;1.00;;
53285;SDS011;39171;45.550;12.074;2022-08-04T20:32:33;1.60;;;0.90;;
53285;SDS011;39171;45.550;12.074;2022-08-04T20:38:35;1.00;;;0.70;;
53285;SDS011;39171;45.550;12.074;2022-08-04T20:44:36;1.20;;;0.70;;
53285;SDS011;39171;45.550;12.074;2022-08-04T20:50:37;0.80;;;0.68;;
53285;SDS011;39171;45.550;12.074;2022-08-04T20:56:39;0.70;;;0.50;;
53285;SDS011;39171;45.550;12.074;2022-08-04T21:02:41;0.80;;;0.50;;
53285;SDS011;39171;45.550;12.074;2022-08-04T21:08:42;0.40;;;0.40;;
53285;SDS011;39171;45.550;12.074;2022-08-04T21:14:44;0.57;;;0.45;;
53285;SDS011;39171;45.550;12.074;2022-08-04T21:20:46;0.50;;;0.40;;
53285;SDS011;39171;45.550;12.074;2022-08-04T21:26:48;0.52;;;0.40;;
53285;SDS011;39171;45.550;12.074;2022-08-04T21:32:50;0.52;;;0.32;;
53285;SDS011;39171;45.550;12.074;2022-08-04T21:38:52;0.70;;;0.50;;
53285;SDS011;39171;45.550;12.074;2022-08-04T21:44:54;0.40;;;0.35;;
53285;SDS011;39171;45.550;12.074;2022-08-04T21:50:55;0.43;;;0.30;;
53285;SDS011;39171;45.550;12.074;2022-08-04T21:56:57;0.50;;;0.40;;
53285;SDS011;39171;45.550;12.074;2022-08-04T22:02:59;0.45;;;0.30;;
53285;SDS011;39171;45.550;12.074;2022-08-04T22:09:02;0.52;;;0.40;;
53285;SDS011;39171;45.550;12.074;2022-08-04T22:15:04;0.60;;;0.40;;
53285;SDS011;39171;45.550;12.074;2022-08-04T22:21:12;0.80;;;0.50;;
53285;SDS011;39171;45.550;12.074;2022-08-04T22:27:14;0.47;;;0.40;;
53285;SDS011;39171;45.550;12.074;2022-08-04T22:33:36;0.65;;;0.40;;
53285;SDS011;39171;45.550;12.074;2022-08-04T22:39:37;0.77;;;0.52;;
53285;SDS011;39171;45.550;12.074;2022-08-04T22:45:42;0.55;;;0.47;;
53285;SDS011;39171;45.550;12.074;2022-08-04T22:51:44;0.60;;;0.40;;
53285;SDS011;39171;45.550;12.074;2022-08-04T22:57:45;0.85;;;0.60;;
53285;SDS011;39171;45.550;12.074;2022-08-04T23:03:47;0.70;;;0.50;;
53285;SDS011;39171;45.550;12.074;2022-08-04T23:09:48;0.70;;;0.50;;
53285;SDS011;39171;45.550;12.074;2022-08-04T23:15:50;1.08;;;0.68;;
53285;SDS011;39171;45.550;12.074;2022-08-04T23:21:51;1.00;;;0.57;;
53285;SDS011;39171;45.550;12.074;2022-08-04T23:27:53;0.90;;;0.60;;
53285;SDS011;39171;45.550;12.074;2022-08-04T23:34:10;0.95;;;0.68;;
53285;SDS011;39171;45.550;12.074;2022-08-04T23:40:12;1.00;;;0.60;;
53285;SDS011;39171;45.550;12.074;2022-08-04T23:46:13;1.08;;;0.70;;
53285;SDS011;39171;45.550;12.074;2022-08-04T23:52:15;0.95;;;0.60;;
53285;SDS011;39171;45.550;12.074;2022-08-04T23:58:20;1.02;;;0.73;;
